sensor_id;sensor_type;location;lat;lon;timestamp;P1;durP1;ratioP1;P2;durP2;ratioP2
81714;SDS011;71125;44.066;2.982;2023-11-21T00:02:25;3.05;;;0.50;;
81714;SDS011;71125;44.066;2.982;2023-11-21T00:04:52;7.65;;;0.50;;
81714;SDS011;71125;44.066;2.982;2023-11-21T00:09:44;3.55;;;0.50;;
81714;SDS011;71125;44.066;2.982;2023-11-21T00:12:16;6.68;;;0.52;;
81714;SDS011;71125;44.066;2.982;2023-11-21T00:14:49;3.58;;;0.80;;
81714;SDS011;71125;44.066;2.982;2023-11-21T00:17:15;11.05;;;1.02;;
81714;SDS011;71125;44.066;2.982;2023-11-21T00:19:44;9.35;;;0.85;;
81714;SDS011;71125;44.066;2.982;2023-11-21T00:24:39;4.28;;;0.50;;
81714;SDS011;71125;44.066;2.982;2023-11-21T00:29:37;5.70;;;0.43;;
81714;SDS011;71125;44.066;2.982;2023-11-21T00:32:04;6.65;;;0.60;;
81714;SDS011;71125;44.066;2.982;2023-11-21T00:34:30;7.03;;;0.70;;
81714;SDS011;71125;44.066;2.982;2023-11-21T00:36:56;6.13;;;0.70;;
81714;SDS011;71125;44.066;2.982;2023-11-21T00:41:49;10.57;;;0.85;;
81714;SDS011;71125;44.066;2.982;2023-11-21T00:44:15;5.60;;;0.70;;
81714;SDS011;71125;44.066;2.982;2023-11-21T00:46:41;3.75;;;0.75;;
81714;SDS011;71125;44.066;2.982;2023-11-21T00:49:07;9.13;;;0.57;;
81714;SDS011;71125;44.066;2.982;2023-11-21T00:53:59;5.00;;;0.60;;
81714;SDS011;71125;44.066;2.982;2023-11-21T00:56:26;7.82;;;0.90;;
81714;SDS011;71125;44.066;2.982;2023-11-21T00:58:53;3.13;;;0.38;;
81714;SDS011;71125;44.066;2.982;2023-11-21T01:01:22;3.75;;;0.40;;
81714;SDS011;71125;44.066;2.982;2023-11-21T01:03:51;5.57;;;0.82;;
81714;SDS011;71125;44.066;2.982;2023-11-21T01:06:17;5.72;;;0.75;;
81714;SDS011;71125;44.066;2.982;2023-11-21T01:08:46;2.80;;;0.38;;
81714;SDS011;71125;44.066;2.982;2023-11-21T01:11:19;5.97;;;0.65;;
81714;SDS011;71125;44.066;2.982;2023-11-21T01:13:53;4.78;;;0.40;;
81714;SDS011;71125;44.066;2.982;2023-11-21T01:16:22;3.30;;;0.30;;
81714;SDS011;71125;44.066;2.982;2023-11-21T01:18:54;5.45;;;0.47;;
81714;SDS011;71125;44.066;2.982;2023-11-21T01:21:20;2.72;;;0.40;;
81714;SDS011;71125;44.066;2.982;2023-11-21T01:23:49;5.28;;;0.47;;
81714;SDS011;71125;44.066;2.982;2023-11-21T01:26:15;5.40;;;0.60;;
81714;SDS011;71125;44.066;2.982;2023-11-21T01:28:41;5.63;;;0.52;;
81714;SDS011;71125;44.066;2.982;2023-11-21T01:33:37;3.60;;;0.45;;
81714;SDS011;71125;44.066;2.982;2023-11-21T01:36:06;4.45;;;0.75;;
81714;SDS011;71125;44.066;2.982;2023-11-21T01:38:34;5.13;;;0.50;;
81714;SDS011;71125;44.066;2.982;2023-11-21T01:41:00;8.00;;;0.52;;
81714;SDS011;71125;44.066;2.982;2023-11-21T01:45:53;4.88;;;0.65;;
81714;SDS011;71125;44.066;2.982;2023-11-21T01:48:22;4.60;;;0.50;;
81714;SDS011;71125;44.066;2.982;2023-11-21T01:50:48;5.18;;;0.40;;
81714;SDS011;71125;44.066;2.982;2023-11-21T01:53:16;7.18;;;0.93;;
81714;SDS011;71125;44.066;2.982;2023-11-21T01:55:43;5.55;;;0.43;;
81714;SDS011;71125;44.066;2.982;2023-11-21T01:58:13;9.52;;;1.17;;
81714;SDS011;71125;44.066;2.982;2023-11-21T02:00:41;8.52;;;1.05;;
81714;SDS011;71125;44.066;2.982;2023-11-21T02:03:08;8.20;;;0.93;;
81714;SDS011;71125;44.066;2.982;2023-11-21T02:05:35;3.63;;;0.55;;
81714;SDS011;71125;44.066;2.982;2023-11-21T02:08:01;8.20;;;0.90;;
81714;SDS011;71125;44.066;2.982;2023-11-21T02:10:28;2.33;;;0.40;;
81714;SDS011;71125;44.066;2.982;2023-11-21T02:13:00;5.03;;;0.55;;
81714;SDS011;71125;44.066;2.982;2023-11-21T02:15:27;2.63;;;0.57;;
81714;SDS011;71125;44.066;2.982;2023-11-21T02:20:22;2.35;;;0.28;;
81714;SDS011;71125;44.066;2.982;2023-11-21T02:22:55;2.90;;;0.30;;
81714;SDS011;71125;44.066;2.982;2023-11-21T02:25:28;5.18;;;0.65;;
81714;SDS011;71125;44.066;2.982;2023-11-21T02:27:54;5.70;;;0.82;;
81714;SDS011;71125;44.066;2.982;2023-11-21T02:30:29;3.30;;;0.50;;
81714;SDS011;71125;44.066;2.982;2023-11-21T02:33:04;5.35;;;0.85;;
81714;SDS011;71125;44.066;2.982;2023-11-21T02:35:32;3.90;;;0.70;;
81714;SDS011;71125;44.066;2.982;2023-11-21T02:37:58;5.07;;;0.50;;
81714;SDS011;71125;44.066;2.982;2023-11-21T02:40:24;7.07;;;0.55;;
81714;SDS011;71125;44.066;2.982;2023-11-21T02:42:54;5.05;;;0.60;;
81714;SDS011;71125;44.066;2.982;2023-11-21T02:45:22;5.22;;;0.50;;
81714;SDS011;71125;44.066;2.982;2023-11-21T02:47:52;3.75;;;0.52;;
81714;SDS011;71125;44.066;2.982;2023-11-21T02:50:18;4.82;;;0.50;;
81714;SDS011;71125;44.066;2.982;2023-11-21T02:52:48;4.60;;;0.55;;
81714;SDS011;71125;44.066;2.982;2023-11-21T02:55:17;2.47;;;0.30;;
81714;SDS011;71125;44.066;2.982;2023-11-21T02:57:46;7.45;;;0.90;;
81714;SDS011;71125;44.066;2.982;2023-11-21T03:00:13;4.45;;;0.40;;
81714;SDS011;71125;44.066;2.982;2023-11-21T03:02:40;6.90;;;1.00;;
81714;SDS011;71125;44.066;2.982;2023-11-21T03:05:06;5.00;;;0.98;;
81714;SDS011;71125;44.066;2.982;2023-11-21T03:07:36;3.13;;;0.40;;
81714;SDS011;71125;44.066;2.982;2023-11-21T03:10:08;5.68;;;0.80;;
81714;SDS011;71125;44.066;2.982;2023-11-21T03:12:36;3.20;;;0.60;;
81714;SDS011;71125;44.066;2.982;2023-11-21T03:15:02;4.35;;;0.50;;
81714;SDS011;71125;44.066;2.982;2023-11-21T03:17:32;2.97;;;0.52;;
81714;SDS011;71125;44.066;2.982;2023-11-21T03:19:59;8.63;;;0.50;;
81714;SDS011;71125;44.066;2.982;2023-11-21T03:22:25;3.13;;;0.38;;
81714;SDS011;71125;44.066;2.982;2023-11-21T03:24:51;1.40;;;0.30;;
81714;SDS011;71125;44.066;2.982;2023-11-21T03:30:07;6.07;;;0.57;;
81714;SDS011;71125;44.066;2.982;2023-11-21T03:32:39;4.28;;;0.45;;
81714;SDS011;71125;44.066;2.982;2023-11-21T03:37:34;5.53;;;0.43;;
81714;SDS011;71125;44.066;2.982;2023-11-21T03:40:00;7.13;;;0.50;;
81714;SDS011;71125;44.066;2.982;2023-11-21T03:42:29;7.38;;;0.80;;
81714;SDS011;71125;44.066;2.982;2023-11-21T03:45:07;5.55;;;0.55;;
81714;SDS011;71125;44.066;2.982;2023-11-21T03:47:41;5.38;;;0.45;;
81714;SDS011;71125;44.066;2.982;2023-11-21T03:50:29;10.20;;;0.70;;
81714;SDS011;71125;44.066;2.982;2023-11-21T04:05:55;0.00;;;0.00;;
81714;SDS011;71125;44.066;2.982;2023-11-21T04:08:22;0.00;;;0.00;;
81714;SDS011;71125;44.066;2.982;2023-11-21T04:13:14;0.00;;;0.00;;
81714;SDS011;71125;44.066;2.982;2023-11-21T04:18:05;0.00;;;0.00;;
81714;SDS011;71125;44.066;2.982;2023-11-21T04:22:58;0.00;;;0.00;;
81714;SDS011;71125;44.066;2.982;2023-11-21T04:27:50;0.00;;;0.00;;
81714;SDS011;71125;44.066;2.982;2023-11-21T04:30:16;0.00;;;0.00;;
81714;SDS011;71125;44.066;2.982;2023-11-21T04:32:42;0.00;;;0.00;;
81714;SDS011;71125;44.066;2.982;2023-11-21T04:37:34;0.00;;;0.00;;
81714;SDS011;71125;44.066;2.982;2023-11-21T04:40:00;0.00;;;0.00;;
81714;SDS011;71125;44.066;2.982;2023-11-21T04:42:26;0.00;;;0.00;;
81714;SDS011;71125;44.066;2.982;2023-11-21T04:47:21;0.00;;;0.00;;
81714;SDS011;71125;44.066;2.982;2023-11-21T04:49:54;0.00;;;0.00;;
81714;SDS011;71125;44.066;2.982;2023-11-21T04:52:23;0.00;;;0.00;;
81714;SDS011;71125;44.066;2.982;2023-11-21T04:54:49;0.00;;;0.00;;
81714;SDS011;71125;44.066;2.982;2023-11-21T04:59:43;0.00;;;0.00;;
81714;SDS011;71125;44.066;2.982;2023-11-21T05:04:35;0.00;;;0.00;;
81714;SDS011;71125;44.066;2.982;2023-11-21T05:07:01;0.00;;;0.00;;
81714;SDS011;71125;44.066;2.982;2023-11-21T05:11:59;0.00;;;0.00;;
81714;SDS011;71125;44.066;2.982;2023-11-21T05:14:25;0.00;;;0.00;;
81714;SDS011;71125;44.066;2.982;2023-11-21T05:16:52;0.00;;;0.00;;
81714;SDS011;71125;44.066;2.982;2023-11-21T05:19:18;0.00;;;0.00;;
81714;SDS011;71125;44.066;2.982;2023-11-21T05:21:50;0.00;;;0.00;;
81714;SDS011;71125;44.066;2.982;2023-11-21T05:24:22;0.00;;;0.00;;
81714;SDS011;71125;44.066;2.982;2023-11-21T05:26:48;0.00;;;0.00;;
81714;SDS011;71125;44.066;2.982;2023-11-21T05:31:40;0.00;;;0.00;;
81714;SDS011;71125;44.066;2.982;2023-11-21T05:34:35;0.00;;;0.00;;
81714;SDS011;71125;44.066;2.982;2023-11-21T05:39:28;0.00;;;0.00;;
81714;SDS011;71125;44.066;2.982;2023-11-21T05:41:54;0.00;;;0.00;;
81714;SDS011;71125;44.066;2.982;2023-11-21T05:46:50;0.00;;;0.00;;
81714;SDS011;71125;44.066;2.982;2023-11-21T05:51:42;0.00;;;0.00;;
81714;SDS011;71125;44.066;2.982;2023-11-21T05:54:11;0.00;;;0.00;;
81714;SDS011;71125;44.066;2.982;2023-11-21T05:56:39;0.00;;;0.00;;
81714;SDS011;71125;44.066;2.982;2023-11-21T05:59:14;0.00;;;0.00;;
81714;SDS011;71125;44.066;2.982;2023-11-21T06:01:46;0.00;;;0.00;;
81714;SDS011;71125;44.066;2.982;2023-11-21T06:04:15;0.00;;;0.00;;
81714;SDS011;71125;44.066;2.982;2023-11-21T06:06:43;0.00;;;0.00;;
81714;SDS011;71125;44.066;2.982;2023-11-21T06:09:09;0.00;;;0.00;;
81714;SDS011;71125;44.066;2.982;2023-11-21T06:11:36;0.00;;;0.00;;
81714;SDS011;71125;44.066;2.982;2023-11-21T06:14:05;0.00;;;0.00;;
81714;SDS011;71125;44.066;2.982;2023-11-21T06:16:33;0.00;;;0.00;;
81714;SDS011;71125;44.066;2.982;2023-11-21T06:18:59;0.00;;;0.00;;
81714;SDS011;71125;44.066;2.982;2023-11-21T06:21:26;0.00;;;0.00;;
81714;SDS011;71125;44.066;2.982;2023-11-21T06:26:18;0.00;;;0.00;;
81714;SDS011;71125;44.066;2.982;2023-11-21T06:28:45;0.00;;;0.00;;
81714;SDS011;71125;44.066;2.982;2023-11-21T06:33:37;0.00;;;0.00;;
81714;SDS011;71125;44.066;2.982;2023-11-21T06:36:03;0.00;;;0.00;;
81714;SDS011;71125;44.066;2.982;2023-11-21T06:38:29;0.00;;;0.00;;
81714;SDS011;71125;44.066;2.982;2023-11-21T06:40:57;0.00;;;0.00;;
81714;SDS011;71125;44.066;2.982;2023-11-21T06:43:23;0.00;;;0.00;;
81714;SDS011;71125;44.066;2.982;2023-11-21T06:45:49;0.00;;;0.00;;
81714;SDS011;71125;44.066;2.982;2023-11-21T06:48:15;0.00;;;0.00;;
81714;SDS011;71125;44.066;2.982;2023-11-21T06:53:07;0.00;;;0.00;;
81714;SDS011;71125;44.066;2.982;2023-11-21T06:55:34;0.00;;;0.00;;
81714;SDS011;71125;44.066;2.982;2023-11-21T06:58:01;0.00;;;0.00;;
81714;SDS011;71125;44.066;2.982;2023-11-21T07:00:27;0.00;;;0.00;;
81714;SDS011;71125;44.066;2.982;2023-11-21T07:02:53;0.00;;;0.00;;
81714;SDS011;71125;44.066;2.982;2023-11-21T07:05:22;0.00;;;0.00;;
81714;SDS011;71125;44.066;2.982;2023-11-21T07:07:49;0.00;;;0.00;;
81714;SDS011;71125;44.066;2.982;2023-11-21T07:10:15;0.00;;;0.00;;
81714;SDS011;71125;44.066;2.982;2023-11-21T07:12:42;0.00;;;0.00;;
81714;SDS011;71125;44.066;2.982;2023-11-21T07:15:11;0.00;;;0.00;;
81714;SDS011;71125;44.066;2.982;2023-11-21T07:17:37;0.00;;;0.00;;
81714;SDS011;71125;44.066;2.982;2023-11-21T07:20:05;0.00;;;0.00;;
81714;SDS011;71125;44.066;2.982;2023-11-21T07:22:31;0.00;;;0.00;;
81714;SDS011;71125;44.066;2.982;2023-11-21T07:24:58;0.00;;;0.00;;
81714;SDS011;71125;44.066;2.982;2023-11-21T07:29:50;0.00;;;0.00;;
81714;SDS011;71125;44.066;2.982;2023-11-21T07:34:48;0.00;;;0.00;;
81714;SDS011;71125;44.066;2.982;2023-11-21T07:37:14;0.00;;;0.00;;
81714;SDS011;71125;44.066;2.982;2023-11-21T07:42:09;0.00;;;0.00;;
81714;SDS011;71125;44.066;2.982;2023-11-21T07:44:41;0.00;;;0.00;;
81714;SDS011;71125;44.066;2.982;2023-11-21T07:47:18;0.35;;;0.20;;
81714;SDS011;71125;44.066;2.982;2023-11-21T07:49:55;0.00;;;0.00;;
81714;SDS011;71125;44.066;2.982;2023-11-21T07:52:23;0.28;;;0.28;;
81714;SDS011;71125;44.066;2.982;2023-11-21T07:54:49;0.00;;;0.00;;
81714;SDS011;71125;44.066;2.982;2023-11-21T07:57:21;0.10;;;0.10;;
81714;SDS011;71125;44.066;2.982;2023-11-21T07:59:47;0.00;;;0.00;;
81714;SDS011;71125;44.066;2.982;2023-11-21T08:02:13;0.22;;;0.20;;
81714;SDS011;71125;44.066;2.982;2023-11-21T08:04:45;0.00;;;0.00;;
81714;SDS011;71125;44.066;2.982;2023-11-21T08:07:14;0.00;;;0.00;;
81714;SDS011;71125;44.066;2.982;2023-11-21T08:09:43;0.00;;;0.00;;
81714;SDS011;71125;44.066;2.982;2023-11-21T08:12:09;0.00;;;0.00;;
81714;SDS011;71125;44.066;2.982;2023-11-21T08:14:38;0.00;;;0.00;;
81714;SDS011;71125;44.066;2.982;2023-11-21T08:17:10;0.00;;;0.00;;
81714;SDS011;71125;44.066;2.982;2023-11-21T08:22:03;0.00;;;0.00;;
81714;SDS011;71125;44.066;2.982;2023-11-21T08:24:29;0.00;;;0.00;;
81714;SDS011;71125;44.066;2.982;2023-11-21T08:26:55;0.00;;;0.00;;
81714;SDS011;71125;44.066;2.982;2023-11-21T08:29:22;0.00;;;0.00;;
81714;SDS011;71125;44.066;2.982;2023-11-21T08:31:48;0.00;;;0.00;;
81714;SDS011;71125;44.066;2.982;2023-11-21T08:34:20;0.00;;;0.00;;
81714;SDS011;71125;44.066;2.982;2023-11-21T08:36:46;0.00;;;0.00;;
81714;SDS011;71125;44.066;2.982;2023-11-21T08:39:32;0.00;;;0.00;;
81714;SDS011;71125;44.066;2.982;2023-11-21T08:45:57;0.00;;;0.00;;
81714;SDS011;71125;44.066;2.982;2023-11-21T08:48:25;0.00;;;0.00;;
81714;SDS011;71125;44.066;2.982;2023-11-21T08:56:41;0.00;;;0.00;;
81714;SDS011;71125;44.066;2.982;2023-11-21T08:59:09;0.00;;;0.00;;
81714;SDS011;71125;44.066;2.982;2023-11-21T09:09:43;0.00;;;0.00;;
81714;SDS011;71125;44.066;2.982;2023-11-21T09:17:49;0.00;;;0.00;;
81714;SDS011;71125;44.066;2.982;2023-11-21T09:20:15;0.00;;;0.00;;
81714;SDS011;71125;44.066;2.982;2023-11-21T09:35:51;0.00;;;0.00;;
81714;SDS011;71125;44.066;2.982;2023-11-21T09:38:18;0.00;;;0.00;;
81714;SDS011;71125;44.066;2.982;2023-11-21T09:40:45;0.00;;;0.00;;
81714;SDS011;71125;44.066;2.982;2023-11-21T09:48:38;0.00;;;0.00;;
81714;SDS011;71125;44.066;2.982;2023-11-21T09:51:05;0.00;;;0.00;;
81714;SDS011;71125;44.066;2.982;2023-11-21T10:17:19;0.00;;;0.00;;
81714;SDS011;71125;44.066;2.982;2023-11-21T10:20:13;0.00;;;0.00;;
81714;SDS011;71125;44.066;2.982;2023-11-21T10:23:25;0.00;;;0.00;;
81714;SDS011;71125;44.066;2.982;2023-11-21T10:25:55;0.00;;;0.00;;
81714;SDS011;71125;44.066;2.982;2023-11-21T10:31:34;0.00;;;0.00;;
81714;SDS011;71125;44.066;2.982;2023-11-21T10:37:12;0.00;;;0.00;;
81714;SDS011;71125;44.066;2.982;2023-11-21T10:42:28;0.00;;;0.00;;
81714;SDS011;71125;44.066;2.982;2023-11-21T10:45:37;0.00;;;0.00;;
81714;SDS011;71125;44.066;2.982;2023-11-21T10:48:28;0.00;;;0.00;;
81714;SDS011;71125;44.066;2.982;2023-11-21T10:51:20;0.00;;;0.00;;
81714;SDS011;71125;44.066;2.982;2023-11-21T10:53:52;0.73;;;0.55;;
81714;SDS011;71125;44.066;2.982;2023-11-21T10:56:58;0.00;;;0.00;;
81714;SDS011;71125;44.066;2.982;2023-11-21T11:20:14;0.00;;;0.00;;
81714;SDS011;71125;44.066;2.982;2023-11-21T11:33:30;0.00;;;0.00;;
81714;SDS011;71125;44.066;2.982;2023-11-21T11:44:03;0.00;;;0.00;;
81714;SDS011;71125;44.066;2.982;2023-11-21T11:49:31;0.00;;;0.00;;
81714;SDS011;71125;44.066;2.982;2023-11-21T11:54:50;0.00;;;0.00;;
81714;SDS011;71125;44.066;2.982;2023-11-21T11:57:17;0.00;;;0.00;;
81714;SDS011;71125;44.066;2.982;2023-11-21T12:05:32;0.00;;;0.00;;
81714;SDS011;71125;44.066;2.982;2023-11-21T12:08:20;0.03;;;0.03;;
81714;SDS011;71125;44.066;2.982;2023-11-21T12:16:32;6.32;;;0.45;;
81714;SDS011;71125;44.066;2.982;2023-11-21T12:19:19;0.00;;;0.00;;
81714;SDS011;71125;44.066;2.982;2023-11-21T12:25:16;0.00;;;0.00;;
81714;SDS011;71125;44.066;2.982;2023-11-21T12:28:06;0.00;;;0.00;;
81714;SDS011;71125;44.066;2.982;2023-11-21T12:30:42;0.20;;;0.08;;
81714;SDS011;71125;44.066;2.982;2023-11-21T12:33:27;0.00;;;0.00;;
81714;SDS011;71125;44.066;2.982;2023-11-21T12:35:54;0.00;;;0.00;;
81714;SDS011;71125;44.066;2.982;2023-11-21T12:38:20;0.00;;;0.00;;
81714;SDS011;71125;44.066;2.982;2023-11-21T12:40:55;0.10;;;0.05;;
81714;SDS011;71125;44.066;2.982;2023-11-21T12:43:25;0.13;;;0.00;;
81714;SDS011;71125;44.066;2.982;2023-11-21T12:48:27;0.20;;;0.03;;
81714;SDS011;71125;44.066;2.982;2023-11-21T12:51:04;1.17;;;0.22;;
81714;SDS011;71125;44.066;2.982;2023-11-21T12:53:30;0.90;;;0.55;;
81714;SDS011;71125;44.066;2.982;2023-11-21T12:58:40;0.10;;;0.10;;
81714;SDS011;71125;44.066;2.982;2023-11-21T13:01:14;0.55;;;0.10;;
81714;SDS011;71125;44.066;2.982;2023-11-21T13:06:14;0.60;;;0.20;;
81714;SDS011;71125;44.066;2.982;2023-11-21T13:08:44;1.70;;;0.10;;
81714;SDS011;71125;44.066;2.982;2023-11-21T13:14:42;0.20;;;0.08;;
81714;SDS011;71125;44.066;2.982;2023-11-21T13:17:15;1.25;;;0.10;;
81714;SDS011;71125;44.066;2.982;2023-11-21T13:19:52;0.10;;;0.00;;
81714;SDS011;71125;44.066;2.982;2023-11-21T13:25:32;0.20;;;0.10;;
81714;SDS011;71125;44.066;2.982;2023-11-21T13:28:03;0.20;;;0.00;;
81714;SDS011;71125;44.066;2.982;2023-11-21T13:30:29;0.30;;;0.10;;
81714;SDS011;71125;44.066;2.982;2023-11-21T13:33:05;0.38;;;0.10;;
81714;SDS011;71125;44.066;2.982;2023-11-21T13:35:33;0.82;;;0.10;;
81714;SDS011;71125;44.066;2.982;2023-11-21T13:38:12;0.00;;;0.00;;
81714;SDS011;71125;44.066;2.982;2023-11-21T13:40:39;1.10;;;0.20;;
81714;SDS011;71125;44.066;2.982;2023-11-21T13:43:12;0.25;;;0.10;;
81714;SDS011;71125;44.066;2.982;2023-11-21T13:49:02;0.10;;;0.00;;
81714;SDS011;71125;44.066;2.982;2023-11-21T13:51:34;0.15;;;0.00;;
81714;SDS011;71125;44.066;2.982;2023-11-21T13:54:14;0.47;;;0.10;;
81714;SDS011;71125;44.066;2.982;2023-11-21T13:56:43;0.15;;;0.05;;
81714;SDS011;71125;44.066;2.982;2023-11-21T13:59:17;0.60;;;0.10;;
81714;SDS011;71125;44.066;2.982;2023-11-21T14:01:56;0.55;;;0.10;;
81714;SDS011;71125;44.066;2.982;2023-11-21T14:04:25;1.45;;;0.10;;
81714;SDS011;71125;44.066;2.982;2023-11-21T14:07:16;0.22;;;0.10;;
81714;SDS011;71125;44.066;2.982;2023-11-21T14:09:57;0.85;;;0.30;;
81714;SDS011;71125;44.066;2.982;2023-11-21T14:12:52;0.30;;;0.10;;
81714;SDS011;71125;44.066;2.982;2023-11-21T14:15:27;1.20;;;0.40;;
81714;SDS011;71125;44.066;2.982;2023-11-21T14:18:14;0.30;;;0.10;;
81714;SDS011;71125;44.066;2.982;2023-11-21T14:20:53;0.77;;;0.15;;
81714;SDS011;71125;44.066;2.982;2023-11-21T14:23:28;0.22;;;0.10;;
81714;SDS011;71125;44.066;2.982;2023-11-21T14:25:58;1.23;;;0.15;;
81714;SDS011;71125;44.066;2.982;2023-11-21T14:28:33;0.73;;;0.15;;
81714;SDS011;71125;44.066;2.982;2023-11-21T14:31:00;1.45;;;0.10;;
81714;SDS011;71125;44.066;2.982;2023-11-21T14:33:34;0.28;;;0.10;;
81714;SDS011;71125;44.066;2.982;2023-11-21T14:38:42;0.03;;;0.00;;
81714;SDS011;71125;44.066;2.982;2023-11-21T14:41:11;0.10;;;0.10;;
81714;SDS011;71125;44.066;2.982;2023-11-21T14:43:39;0.10;;;0.08;;
81714;SDS011;71125;44.066;2.982;2023-11-21T14:46:09;1.75;;;0.10;;
81714;SDS011;71125;44.066;2.982;2023-11-21T14:48:39;0.10;;;0.00;;
81714;SDS011;71125;44.066;2.982;2023-11-21T14:51:14;0.10;;;0.08;;
81714;SDS011;71125;44.066;2.982;2023-11-21T14:54:13;0.45;;;0.10;;
81714;SDS011;71125;44.066;2.982;2023-11-21T14:56:48;0.63;;;0.20;;
81714;SDS011;71125;44.066;2.982;2023-11-21T14:59:14;0.57;;;0.20;;
81714;SDS011;71125;44.066;2.982;2023-11-21T15:01:55;0.38;;;0.20;;
81714;SDS011;71125;44.066;2.982;2023-11-21T15:04:42;0.22;;;0.20;;
81714;SDS011;71125;44.066;2.982;2023-11-21T15:07:16;0.75;;;0.10;;
81714;SDS011;71125;44.066;2.982;2023-11-21T15:09:52;0.20;;;0.10;;
81714;SDS011;71125;44.066;2.982;2023-11-21T15:12:27;0.45;;;0.20;;
81714;SDS011;71125;44.066;2.982;2023-11-21T15:15:01;0.47;;;0.10;;
81714;SDS011;71125;44.066;2.982;2023-11-21T15:17:28;0.03;;;0.00;;
81714;SDS011;71125;44.066;2.982;2023-11-21T15:20:03;0.05;;;0.00;;
81714;SDS011;71125;44.066;2.982;2023-11-21T15:22:43;0.68;;;0.10;;
81714;SDS011;71125;44.066;2.982;2023-11-21T15:25:09;0.88;;;0.10;;
81714;SDS011;71125;44.066;2.982;2023-11-21T15:27:42;0.55;;;0.10;;
81714;SDS011;71125;44.066;2.982;2023-11-21T15:30:09;0.28;;;0.03;;
81714;SDS011;71125;44.066;2.982;2023-11-21T15:33:11;0.47;;;0.20;;
81714;SDS011;71125;44.066;2.982;2023-11-21T15:35:38;0.50;;;0.10;;
81714;SDS011;71125;44.066;2.982;2023-11-21T15:38:06;0.30;;;0.10;;
81714;SDS011;71125;44.066;2.982;2023-11-21T15:40:36;1.65;;;0.00;;
81714;SDS011;71125;44.066;2.982;2023-11-21T15:43:03;0.73;;;0.00;;
81714;SDS011;71125;44.066;2.982;2023-11-21T15:45:38;0.88;;;0.20;;
81714;SDS011;71125;44.066;2.982;2023-11-21T15:48:07;0.22;;;0.00;;
81714;SDS011;71125;44.066;2.982;2023-11-21T15:50:36;1.02;;;0.10;;
81714;SDS011;71125;44.066;2.982;2023-11-21T15:53:17;0.32;;;0.10;;
81714;SDS011;71125;44.066;2.982;2023-11-21T15:55:46;0.13;;;0.10;;
81714;SDS011;71125;44.066;2.982;2023-11-21T15:58:12;0.30;;;0.10;;
81714;SDS011;71125;44.066;2.982;2023-11-21T16:00:47;0.20;;;0.10;;
81714;SDS011;71125;44.066;2.982;2023-11-21T16:03:14;0.20;;;0.03;;
81714;SDS011;71125;44.066;2.982;2023-11-21T16:05:41;0.15;;;0.10;;
81714;SDS011;71125;44.066;2.982;2023-11-21T16:13:53;1.60;;;0.43;;
81714;SDS011;71125;44.066;2.982;2023-11-21T16:16:26;3.05;;;0.43;;
81714;SDS011;71125;44.066;2.982;2023-11-21T16:19:01;27.33;;;10.82;;
81714;SDS011;71125;44.066;2.982;2023-11-21T16:21:30;55.67;;;23.17;;
81714;SDS011;71125;44.066;2.982;2023-11-21T16:29:39;10.35;;;5.63;;
81714;SDS011;71125;44.066;2.982;2023-11-21T16:32:14;5.05;;;1.25;;
81714;SDS011;71125;44.066;2.982;2023-11-21T16:34:44;4.78;;;3.08;;
81714;SDS011;71125;44.066;2.982;2023-11-21T16:37:15;4.07;;;1.90;;
81714;SDS011;71125;44.066;2.982;2023-11-21T16:39:44;3.97;;;1.50;;
81714;SDS011;71125;44.066;2.982;2023-11-21T16:42:20;1.83;;;0.85;;
81714;SDS011;71125;44.066;2.982;2023-11-21T16:44:49;7.43;;;2.33;;
81714;SDS011;71125;44.066;2.982;2023-11-21T16:47:18;10.23;;;5.07;;
81714;SDS011;71125;44.066;2.982;2023-11-21T16:49:53;15.13;;;7.63;;
81714;SDS011;71125;44.066;2.982;2023-11-21T16:52:22;8.23;;;4.05;;
81714;SDS011;71125;44.066;2.982;2023-11-21T16:55:23;5.65;;;2.47;;
81714;SDS011;71125;44.066;2.982;2023-11-21T16:57:50;29.67;;;10.75;;
81714;SDS011;71125;44.066;2.982;2023-11-21T17:00:29;14.57;;;6.53;;
81714;SDS011;71125;44.066;2.982;2023-11-21T17:03:29;15.73;;;7.03;;
81714;SDS011;71125;44.066;2.982;2023-11-21T17:06:21;8.23;;;2.83;;
81714;SDS011;71125;44.066;2.982;2023-11-21T17:09:14;6.38;;;2.53;;
81714;SDS011;71125;44.066;2.982;2023-11-21T17:11:59;3.92;;;1.80;;
81714;SDS011;71125;44.066;2.982;2023-11-21T17:14:52;2.83;;;1.40;;
81714;SDS011;71125;44.066;2.982;2023-11-21T17:17:19;13.18;;;6.88;;
81714;SDS011;71125;44.066;2.982;2023-11-21T17:22:11;28.65;;;13.48;;
81714;SDS011;71125;44.066;2.982;2023-11-21T17:24:37;15.18;;;8.05;;
81714;SDS011;71125;44.066;2.982;2023-11-21T17:27:04;11.52;;;5.25;;
81714;SDS011;71125;44.066;2.982;2023-11-21T17:29:31;1.85;;;0.70;;
81714;SDS011;71125;44.066;2.982;2023-11-21T17:34:23;12.68;;;5.57;;
81714;SDS011;71125;44.066;2.982;2023-11-21T17:36:49;23.73;;;10.43;;
81714;SDS011;71125;44.066;2.982;2023-11-21T17:39:15;19.35;;;8.90;;
81714;SDS011;71125;44.066;2.982;2023-11-21T17:41:42;3.78;;;1.65;;
81714;SDS011;71125;44.066;2.982;2023-11-21T17:46:34;16.65;;;7.38;;
81714;SDS011;71125;44.066;2.982;2023-11-21T17:49:01;11.45;;;5.32;;
81714;SDS011;71125;44.066;2.982;2023-11-21T17:51:27;8.90;;;4.20;;
81714;SDS011;71125;44.066;2.982;2023-11-21T17:56:25;3.60;;;2.25;;
81714;SDS011;71125;44.066;2.982;2023-11-21T18:01:25;6.75;;;3.30;;
81714;SDS011;71125;44.066;2.982;2023-11-21T18:03:58;11.10;;;5.88;;
81714;SDS011;71125;44.066;2.982;2023-11-21T18:06:25;9.88;;;4.82;;
81714;SDS011;71125;44.066;2.982;2023-11-21T18:08:51;4.25;;;2.42;;
81714;SDS011;71125;44.066;2.982;2023-11-21T18:11:17;8.35;;;4.80;;
81714;SDS011;71125;44.066;2.982;2023-11-21T18:13:43;7.35;;;4.00;;
81714;SDS011;71125;44.066;2.982;2023-11-21T18:16:10;4.53;;;2.38;;
81714;SDS011;71125;44.066;2.982;2023-11-21T18:18:39;3.72;;;1.13;;
81714;SDS011;71125;44.066;2.982;2023-11-21T18:24:00;0.63;;;0.22;;
81714;SDS011;71125;44.066;2.982;2023-11-21T18:26:33;0.52;;;0.20;;
81714;SDS011;71125;44.066;2.982;2023-11-21T18:29:06;2.50;;;1.05;;
81714;SDS011;71125;44.066;2.982;2023-11-21T18:31:33;1.98;;;0.60;;
81714;SDS011;71125;44.066;2.982;2023-11-21T18:34:04;1.02;;;0.38;;
81714;SDS011;71125;44.066;2.982;2023-11-21T18:39:58;1.50;;;0.77;;
81714;SDS011;71125;44.066;2.982;2023-11-21T18:42:43;1.50;;;0.60;;
81714;SDS011;71125;44.066;2.982;2023-11-21T18:45:12;2.05;;;1.02;;
81714;SDS011;71125;44.066;2.982;2023-11-21T18:47:46;0.35;;;0.25;;
81714;SDS011;71125;44.066;2.982;2023-11-21T18:50:16;0.50;;;0.20;;
81714;SDS011;71125;44.066;2.982;2023-11-21T18:52:48;1.00;;;0.28;;
81714;SDS011;71125;44.066;2.982;2023-11-21T19:01:03;1.08;;;0.50;;
81714;SDS011;71125;44.066;2.982;2023-11-21T19:03:58;0.68;;;0.20;;
81714;SDS011;71125;44.066;2.982;2023-11-21T19:09:49;0.50;;;0.40;;
81714;SDS011;71125;44.066;2.982;2023-11-21T19:12:24;1.73;;;0.50;;
81714;SDS011;71125;44.066;2.982;2023-11-21T19:15:21;0.32;;;0.10;;
81714;SDS011;71125;44.066;2.982;2023-11-21T19:20:37;0.28;;;0.10;;
81714;SDS011;71125;44.066;2.982;2023-11-21T19:23:03;1.30;;;0.32;;
81714;SDS011;71125;44.066;2.982;2023-11-21T19:26:09;0.22;;;0.10;;
81714;SDS011;71125;44.066;2.982;2023-11-21T19:28:44;0.28;;;0.10;;
81714;SDS011;71125;44.066;2.982;2023-11-21T19:34:27;0.68;;;0.25;;
81714;SDS011;71125;44.066;2.982;2023-11-21T19:36:54;0.00;;;0.00;;
81714;SDS011;71125;44.066;2.982;2023-11-21T19:41:57;0.93;;;0.20;;
81714;SDS011;71125;44.066;2.982;2023-11-21T19:44:30;0.90;;;0.20;;
81714;SDS011;71125;44.066;2.982;2023-11-21T19:46:57;0.10;;;0.00;;
81714;SDS011;71125;44.066;2.982;2023-11-21T19:49:33;0.25;;;0.10;;
81714;SDS011;71125;44.066;2.982;2023-11-21T19:52:05;0.80;;;0.35;;
81714;SDS011;71125;44.066;2.982;2023-11-21T19:54:35;1.10;;;0.17;;
81714;SDS011;71125;44.066;2.982;2023-11-21T19:57:05;0.40;;;0.10;;
81714;SDS011;71125;44.066;2.982;2023-11-21T19:59:35;0.20;;;0.10;;